Reidsville, NC

6:02 PM EDT on September 04, 2015 (GMT -0400)
hurleys wentworth live weather | | Change Station
CLOSE
Current Station
Personal Weather Station
Location: wentworth, NC
Elevation: 780 ft
Nearby Weather Stations

Elev 780 ft 36.41 °N, 79.75 °W | Updated 7 seconds ago

Overcast
Overcast
73.6 °F
Feels Like 76 °F
N
0.0
Wind Variable Wind from NNE
Gusts 0.0 mph

Today
High -- | Low -- °F
--% Chance of Precip.
Yesterday
High -- | Low -- °F
Precip. -- in
6:52 AM 7:43 PM
Waning Gibbous, 55% visible
Pressure 30.04 in
Visibility 4.0 miles
Clouds Clear
Heat Index 76 °F
Dew Point 63 °F
Humidity 70%
Rainfall 0.00 in
Snow Depth Not available.
UV 2 out of 12
Pollen 8.90 out of 12
Air Quality Not available.
Flu Activity Not available.
METAR KSIF 042155Z AUTO 00000KT 4SM BR CLR 24/22 A3004 RMK AO2 T02350215
Pressure 30.04 in
Visibility 4.0 miles
Clouds Clear
Heat Index 76 °F
Dew Point 63 °F
Humidity 70%
Rainfall 0.00 in
Snow Depth Not available.
UV 2 out of 12
Pollen 8.90 out of 12
Air Quality Not available.
Flu Activity Not available.
METAR KSIF 042155Z AUTO 00000KT 4SM BR CLR 24/22 A3004 RMK AO2 T02350215

10-Day Weather Forecast

×

Almanac

Astronomy

Sep. 04, 2015 Rise Set
Actual Time
Civil Twilight
Nautical Twilight
Astronomical Twilight
Moon
Length of Visible Light
Length of Day
Tomorrow will be .
, % of the Moon is Illuminated

Today's Extremes

State Highs State Lows

Community

WunderPhotos

Upload Photos

1,852,305 photos uploaded!

WunderBlogs® & News

Nearby

Air Quality

  Air Quality AQ Index Pollutant
Not available.

Snow Depth

Station Depth Elevation

Earthquake Activity

City Distance Mag. Time & Date
Minimum magnitude displayed is 2.5.

Coastal Water Temperatures

Place Temperature

Stations

Nearby Weather Stations

Station Location Temp. Windchill Dew Point Humidity Wind Precip. Elev Updated Type